| time (UTC) | temp F | wind direction | speed MPH | gust MPH | rain 1hr in | rain 24hr in | rain mn in | humidity % | barometer mb |
| 20260510104845 | 72 | 289 | 1.0 | 1.0 | 0.00 | 0.01 | 0.25 | 54 | 1009.8 |
| 20260510103845 | 72 | 289 | 1.0 | 1.0 | 0.00 | 0.01 | 0.25 | 54 | 1009.8 |
| 20260510102845 | 72 | 289 | 1.0 | 1.0 | 0.00 | 0.02 | 0.25 | 54 | 1009.8 |
| 20260510101845 | 72 | 289 | 1.0 | 1.0 | 0.00 | 0.03 | 0.25 | 54 | 1009.8 |
| 20260510100845 | 72 | 289 | 1.0 | 1.0 | 0.00 | 0.03 | 0.25 | 54 | 1009.8 |
| 20260510095845 | 72 | 289 | 1.0 | 1.0 | 0.00 | 0.04 | 0.25 | 54 | 1009.8 |
| 20260510094845 | 72 | 289 | 1.0 | 1.0 | 0.00 | 0.06 | 0.25 | 54 | 1009.8 |
| 20260510093845 | 72 | 289 | 1.0 | 1.0 | 0.00 | 0.08 | 0.25 | 54 | 1009.8 |
| 20260510092905 | 72 | 289 | 1.0 | 1.0 | 0.00 | 0.08 | 0.25 | 54 | 1009.8 |
| 20260510091845 | 72 | 289 | 1.0 | 1.0 | 0.00 | 0.09 | 0.25 | 54 | 1009.8 |
| 20260510090844 | 72 | 289 | 1.0 | 1.0 | 0.00 | 0.09 | 0.25 | 54 | 1009.8 |
| 20260510085844 | 72 | 289 | 1.0 | 1.0 | 0.00 | 0.10 | 0.25 | 54 | 1009.8 |
| 20260510084844 | 72 | 289 | 1.0 | 1.0 | 0.00 | 0.11 | 0.25 | 54 | 1009.8 |
| 20260510083844 | 72 | 289 | 1.0 | 1.0 | 0.00 | 0.12 | 0.25 | 54 | 1009.8 |
| 20260510082844 | 72 | 289 | 1.0 | 1.0 | 0.00 | 0.13 | 0.25 | 54 | 1009.8 |
| 20260510081844 | 72 | 289 | 1.0 | 1.0 | 0.00 | 0.14 | 0.25 | 54 | 1009.8 |
| 20260510080844 | 72 | 289 | 1.0 | 1.0 | 0.00 | 0.14 | 0.25 | 54 | 1009.8 |
| 20260510075844 | 72 | 289 | 1.0 | 1.0 | 0.00 | 0.15 | 0.25 | 54 | 1009.8 |
| 20260510074844 | 72 | 289 | 1.0 | 1.0 | 0.00 | 0.15 | 0.25 | 54 | 1009.8 |
| 20260510073844 | 72 | 289 | 1.0 | 1.0 | 0.00 | 0.16 | 0.25 | 54 | 1009.8 |
| 20260510072844 | 72 | 289 | 1.0 | 1.0 | 0.00 | 0.16 | 0.25 | 54 | 1009.8 |
| 20260510071844 | 72 | 289 | 1.0 | 1.0 | 0.00 | 0.16 | 0.25 | 54 | 1009.8 |
| 20260510070844 | 72 | 289 | 1.0 | 1.0 | 0.00 | 0.17 | 0.25 | 54 | 1009.8 |
| 20260510065844 | 72 | 289 | 1.0 | 1.0 | 0.00 | 0.17 | 0.25 | 54 | 1009.8 |
| 20260510064844 | 72 | 289 | 1.0 | 1.0 | 0.00 | 0.18 | 0.25 | 54 | 1009.8 |
| 20260510063844 | 72 | 289 | 1.0 | 1.0 | 0.00 | 0.18 | 0.25 | 54 | 1009.8 |
| 20260510024842 | 72 | 289 | 1.0 | 1.0 | 0.00 | 0.27 | 0.25 | 54 | 1009.7 |
| 20260510023842 | 72 | 289 | 1.0 | 1.0 | 0.00 | 0.27 | 0.25 | 54 | 1009.4 |
| 20260510022842 | 72 | 289 | 1.0 | 1.0 | 0.00 | 0.27 | 0.25 | 54 | 1009.5 |
| 20260510021842 | 72 | 289 | 1.0 | 1.0 | 0.00 | 0.27 | 0.25 | 54 | 1009.3 |
| 20260509223840 | 75 | 261 | 3.0 | 10.0 | 0.00 | 0.27 | 0.25 | 47 | 1006.8 |
| 20260509222840 | 75 | 253 | 0.0 | 6.0 | 0.00 | 0.27 | 0.25 | 48 | 1006.9 |
| 20260509221840 | 75 | 290 | 0.0 | 9.0 | 0.00 | 0.27 | 0.25 | 48 | 1006.7 |
| 20260509220840 | 75 | 223 | 0.0 | 7.0 | 0.00 | 0.27 | 0.25 | 49 | 1006.8 |
| 20260509215840 | 75 | 182 | 1.0 | 11.0 | 0.00 | 0.27 | 0.25 | 50 | 1007.0 |
| 20260509214840 | 75 | 250 | 2.0 | 10.0 | 0.00 | 0.27 | 0.25 | 50 | 1007.0 |
| 20260509213840 | 75 | 159 | 4.0 | 9.0 | 0.00 | 0.27 | 0.25 | 51 | 1007.1 |
| 20260509212840 | 74 | 221 | 5.0 | 10.0 | 0.00 | 0.27 | 0.25 | 49 | 1007.0 |
| 20260509211840 | 74 | 294 | 0.0 | 10.0 | 0.00 | 0.27 | 0.25 | 52 | 1007.1 |
| 20260509210839 | 75 | 261 | 0.0 | 6.0 | 0.00 | 0.27 | 0.25 | 53 | 1007.1 |
| 20260509205839 | 74 | 191 | 1.0 | 14.0 | 0.00 | 0.27 | 0.25 | 51 | 1007.2 |
| 20260509204839 | 75 | 223 | 0.0 | 10.0 | 0.00 | 0.27 | 0.25 | 50 | 1007.3 |
| 20260509164838 | 67 | 148 | 1.0 | 10.0 | 0.00 | 0.27 | 0.25 | 70 | 1009.0 |
| 20260509163838 | 66 | 290 | 1.0 | 7.0 | 0.00 | 0.27 | 0.25 | 71 | 1008.9 |
| 20260509162838 | 66 | 196 | 2.0 | 6.0 | 0.00 | 0.27 | 0.25 | 69 | 1009.1 |
| 20260509161838 | 66 | 238 | 6.0 | 6.0 | 0.00 | 0.27 | 0.25 | 70 | 1009.0 |
| 20260509160837 | 66 | 294 | 0.0 | 6.0 | 0.00 | 0.27 | 0.25 | 70 | 1008.9 |
| 20260509155837 | 67 | 293 | 3.0 | 9.0 | 0.00 | 0.27 | 0.25 | 68 | 1008.8 |
| 20260509154837 | 66 | 267 | 1.0 | 6.0 | 0.00 | 0.27 | 0.25 | 72 | 1008.7 |
| 20260509153837 | 65 | 223 | 2.0 | 5.0 | 0.00 | 0.27 | 0.25 | 72 | 1008.6 |
| 20260509152837 | 64 | 165 | 1.0 | 6.0 | 0.00 | 0.27 | 0.25 | 76 | 1008.6 |
| 20260509151837 | 64 | 258 | 1.0 | 4.0 | 0.00 | 0.27 | 0.25 | 77 | 1008.6 |